Terminal Aerodrome Forecast
Issued by NWS Boston, MA

Home | Current Version | Previous Version | Text Only | Print | Product List | Glossary On
Versions: 1 2 3 4 5 6 7 8 9 10 11 12 13 14 15 16 17 18 19 20 21 22 23 24 25 26 27 28 29 30 31 32
000
FTUS41 KBOX 232331
TAFORH
TAF
KORH 232331Z 2400/2424 28004KT P6SM BKN200
     FM240800 VRB03KT P6SM BKN090
     FM241200 05005KT P6SM BKN025
     FM241600 07006KT P6SM BKN045
     FM242200 07007KT P6SM SCT080=

USA.gov is the U.S. government's official web portal to all federal, state and local government web resources and services.